createdAt,value
2022-10-15T00:03:13.849Z,66.20
2022-10-15T00:08:16.745Z,66.17
2022-10-15T00:13:19.669Z,66.22
2022-10-15T00:18:22.644Z,65.98
2022-10-15T00:23:25.624Z,66.07
2022-10-15T00:28:31.939Z,66.03
2022-10-15T00:33:38.211Z,66.07
2022-10-15T00:38:42.181Z,66.23
2022-10-15T00:43:47.343Z,66.10
2022-10-15T00:48:54.813Z,66.51
2022-10-15T00:53:57.757Z,66.72
2022-10-15T00:59:01.243Z,66.75
2022-10-15T01:04:05.933Z,67.07
2022-10-15T01:09:08.968Z,66.96
2022-10-15T01:14:42.356Z,66.86
2022-10-15T01:20:04.887Z,67.28
2022-10-15T01:25:35.588Z,67.33
2022-10-15T01:30:41.887Z,67.56
2022-10-15T01:35:52.978Z,67.42
2022-10-15T01:41:20.432Z,67.28
2022-10-15T01:46:35.382Z,67.17
2022-10-15T01:51:44.041Z,67.28
2022-10-15T01:56:50.789Z,67.10
2022-10-15T02:01:58.101Z,66.99
2022-10-15T02:07:18.934Z,67.07
2022-10-15T02:12:38.706Z,66.69
2022-10-15T02:17:44.938Z,66.93
2022-10-15T02:22:50.427Z,66.68
2022-10-15T02:27:56.982Z,66.96
2022-10-15T02:33:00.258Z,66.96
2022-10-15T02:38:07.237Z,67.25
2022-10-15T02:43:13.090Z,67.24
2022-10-15T02:48:17.059Z,66.98
2022-10-15T02:53:21.887Z,67.34
2022-10-15T02:58:26.024Z,67.69
2022-10-15T03:03:29.447Z,67.42
2022-10-15T03:08:33.415Z,67.19
2022-10-15T03:13:39.212Z,67.72
2022-10-15T03:18:42.642Z,67.31
2022-10-15T03:23:46.107Z,67.35
2022-10-15T03:28:53.438Z,67.35
2022-10-15T03:34:09.628Z,67.04
2022-10-15T03:39:13.946Z,67.04
2022-10-15T03:44:17.150Z,67.28
2022-10-15T03:49:21.586Z,67.10
2022-10-15T03:54:29.959Z,67.22
2022-10-15T03:59:33.455Z,67.19
2022-10-15T04:04:38.129Z,66.87
2022-10-15T04:09:41.984Z,66.95
2022-10-15T04:15:09.332Z,67.00
2022-10-15T04:20:15.550Z,66.56
2022-10-15T04:25:19.846Z,66.84
2022-10-15T04:30:22.735Z,66.93
2022-10-15T04:35:30.791Z,67.04
2022-10-15T04:41:01.969Z,66.89
2022-10-15T04:46:12.135Z,66.87
2022-10-15T04:51:21.849Z,66.99
2022-10-15T04:56:57.371Z,66.77
2022-10-15T05:02:00.972Z,66.92
2022-10-15T05:07:04.382Z,66.74
2022-10-15T05:12:08.545Z,66.83
2022-10-15T05:17:11.640Z,67.00
2022-10-15T05:22:16.762Z,67.07
2022-10-15T05:27:25.142Z,66.98
2022-10-15T05:32:28.122Z,67.10
2022-10-15T05:37:31.089Z,67.34
2022-10-15T05:42:35.536Z,67.68
2022-10-15T05:47:38.579Z,67.95
2022-10-15T05:52:50.204Z,68.43
2022-10-15T05:58:03.442Z,68.33
2022-10-15T06:03:06.383Z,68.30
2022-10-15T06:08:09.389Z,68.40
2022-10-15T06:13:12.935Z,68.13
2022-10-15T06:18:16.590Z,68.33
2022-10-15T06:23:22.029Z,67.50
2022-10-15T06:28:24.915Z,67.59
2022-10-15T06:33:28.953Z,67.08
2022-10-15T06:38:32.843Z,66.92
2022-10-15T06:43:36.203Z,66.90
2022-10-15T06:48:39.426Z,66.85
2022-10-15T06:53:43.901Z,66.77
2022-10-15T06:58:46.840Z,66.70
2022-10-15T07:03:52.877Z,66.27
2022-10-15T07:08:55.853Z,66.41
2022-10-15T07:13:58.904Z,66.17
2022-10-15T07:19:01.903Z,66.39
2022-10-15T07:24:05.133Z,66.04
2022-10-15T07:29:09.880Z,65.72
2022-10-15T07:34:12.788Z,65.44
2022-10-15T07:39:18.983Z,65.14
2022-10-15T07:44:22.009Z,64.89
2022-10-15T07:49:24.823Z,64.48
2022-10-15T07:54:27.691Z,64.19
2022-10-15T07:59:30.528Z,64.00
2022-10-15T08:04:35.122Z,63.56
2022-10-15T08:09:38.106Z,63.47
2022-10-15T08:14:41.217Z,63.23
2022-10-15T08:19:44.289Z,63.10
2022-10-15T08:24:47.784Z,63.13
2022-10-15T08:29:50.584Z,63.02
2022-10-15T08:34:53.581Z,62.70
2022-10-15T08:39:56.466Z,62.59
2022-10-15T08:45:03.870Z,62.37
2022-10-15T08:50:49.241Z,61.88
2022-10-15T08:56:04.193Z,61.50
2022-10-15T09:01:29.093Z,61.16
2022-10-15T09:06:37.224Z,60.64
2022-10-15T09:11:52.372Z,60.51
2022-10-15T09:16:55.303Z,60.60
2022-10-15T09:22:01.663Z,60.34
2022-10-15T09:27:32.939Z,60.21
2022-10-15T09:32:38.427Z,60.02
2022-10-15T09:37:41.154Z,60.02
2022-10-15T09:42:45.600Z,59.88
2022-10-15T09:47:50.829Z,58.63
2022-10-15T09:53:02.903Z,58.36
2022-10-15T09:58:12.667Z,57.60
2022-10-15T10:03:15.884Z,56.42
2022-10-15T10:08:24.555Z,55.66
2022-10-15T10:13:36.159Z,55.00
2022-10-15T10:18:39.736Z,54.72
2022-10-15T10:23:42.556Z,53.88
2022-10-15T10:29:04.410Z,53.05
2022-10-15T10:34:17.401Z,52.51
2022-10-15T10:39:26.327Z,52.62
2022-10-15T10:44:32.341Z,52.08
2022-10-15T10:49:55.402Z,52.17
2022-10-15T10:55:20.972Z,52.17
2022-10-15T11:00:42.084Z,52.40
2022-10-15T11:05:45.556Z,52.41
2022-10-15T11:11:04.719Z,52.60
2022-10-15T11:16:29.418Z,52.08
2022-10-15T11:21:46.118Z,51.97
2022-10-15T11:27:30.993Z,51.70
2022-10-15T11:33:05.493Z,50.97
2022-10-15T11:38:44.052Z,50.69
2022-10-15T11:44:22.272Z,50.61
2022-10-15T11:49:49.974Z,50.59
2022-10-15T11:55:14.326Z,50.53
2022-10-15T12:00:32.055Z,50.19
2022-10-15T12:05:42.148Z,50.10
2022-10-15T12:10:53.854Z,49.52
2022-10-15T12:16:06.519Z,49.63
2022-10-15T12:21:39.239Z,49.06
2022-10-15T12:26:42.383Z,48.64
2022-10-15T12:31:52.926Z,48.62
2022-10-15T12:37:06.492Z,48.24
2022-10-15T12:42:41.551Z,48.06
2022-10-15T12:47:54.393Z,47.91
2022-10-15T12:52:59.092Z,47.77
2022-10-15T12:58:22.291Z,48.07
2022-10-15T13:03:35.517Z,48.05
2022-10-15T13:08:44.387Z,48.04
2022-10-15T13:13:50.325Z,47.94
2022-10-15T13:18:56.838Z,47.69
2022-10-15T13:23:59.643Z,47.59
2022-10-15T13:29:02.686Z,47.49
2022-10-15T13:34:24.075Z,47.54
2022-10-15T13:39:40.242Z,47.07
2022-10-15T13:44:58.236Z,46.64
2022-10-15T13:50:27.182Z,46.45
2022-10-15T13:55:36.084Z,46.39
2022-10-15T14:00:40.602Z,46.07
2022-10-15T14:05:46.072Z,45.69
2022-10-15T14:10:50.188Z,45.66
2022-10-15T14:16:11.945Z,45.54
2022-10-15T14:21:18.446Z,45.09
2022-10-15T14:26:24.703Z,45.05
2022-10-15T14:31:40.267Z,44.86
2022-10-15T14:36:43.472Z,44.35
2022-10-15T14:42:31.535Z,44.28
2022-10-15T14:47:34.545Z,44.17
2022-10-15T14:52:45.848Z,44.05
2022-10-15T14:57:49.968Z,44.05
2022-10-15T15:02:56.836Z,43.96
2022-10-15T15:08:04.318Z,44.13
2022-10-15T15:13:22.675Z,43.98
2022-10-15T15:18:25.524Z,43.88
2022-10-15T15:23:29.712Z,43.91
2022-10-15T15:28:34.187Z,43.87
2022-10-15T15:33:37.137Z,43.94
2022-10-15T15:38:40.554Z,43.94
2022-10-15T15:43:43.733Z,44.03
2022-10-15T15:48:47.124Z,44.17
2022-10-15T15:53:50.396Z,44.18
2022-10-15T15:58:53.402Z,44.22
2022-10-15T16:03:56.286Z,44.22
2022-10-15T16:08:59.642Z,44.19
2022-10-15T16:14:05.843Z,44.33
2022-10-15T16:19:11.725Z,44.14
2022-10-15T16:24:14.611Z,44.11
2022-10-15T16:29:17.601Z,44.36
2022-10-15T16:37:02.595Z,44.35
2022-10-15T16:42:08.527Z,44.23
2022-10-15T16:47:11.441Z,44.21
2022-10-15T16:52:15.187Z,44.21
2022-10-15T16:57:18.017Z,44.36
2022-10-15T17:02:20.943Z,44.30
2022-10-15T17:07:24.567Z,44.22
2022-10-15T17:12:28.142Z,44.22
2022-10-15T17:17:31.415Z,44.46
2022-10-15T17:22:44.575Z,44.52
2022-10-15T17:27:47.428Z,44.54
2022-10-15T17:32:50.300Z,45.02
2022-10-15T17:37:53.358Z,44.57
2022-10-15T17:42:56.542Z,44.51
2022-10-15T17:47:59.404Z,44.31
2022-10-15T17:53:04.177Z,44.37
2022-10-15T17:58:08.040Z,44.47
2022-10-15T18:03:11.782Z,44.24
2022-10-15T18:08:15.683Z,44.41
2022-10-15T18:13:18.857Z,44.26
2022-10-15T18:18:21.788Z,44.31
2022-10-15T18:23:25.245Z,44.32
2022-10-15T18:28:28.225Z,44.35
2022-10-15T18:33:32.136Z,44.43
2022-10-15T18:38:35.685Z,44.40
2022-10-15T18:43:38.543Z,44.36
2022-10-15T18:48:41.427Z,44.40
2022-10-15T18:53:44.297Z,44.51
2022-10-15T18:58:47.339Z,44.66
2022-10-15T19:03:52.567Z,44.85
2022-10-15T19:09:03.845Z,44.96
2022-10-15T19:14:09.208Z,45.24
2022-10-15T19:19:16.309Z,45.50
2022-10-15T19:24:21.317Z,45.72
2022-10-15T19:29:24.178Z,45.99
2022-10-15T19:34:28.137Z,46.19
2022-10-15T19:39:32.886Z,46.59
2022-10-15T19:44:35.797Z,47.22
2022-10-15T19:49:39.053Z,47.63
2022-10-15T19:54:42.165Z,47.91
2022-10-15T19:59:45.165Z,48.51
2022-10-15T20:04:48.034Z,48.95
2022-10-15T20:09:51.554Z,49.46
2022-10-15T20:14:54.425Z,49.73
2022-10-15T20:19:57.304Z,50.23
2022-10-15T20:25:00.327Z,50.82
2022-10-15T20:30:04.634Z,50.88
2022-10-15T20:35:08.101Z,51.21
2022-10-15T20:40:11.246Z,51.29
2022-10-15T20:45:14.677Z,51.54
2022-10-15T20:50:22.835Z,51.86
2022-10-15T20:55:25.814Z,52.13
2022-10-15T21:00:29.786Z,52.51
2022-10-15T21:05:33.678Z,52.47
2022-10-15T21:10:36.720Z,52.85
2022-10-15T21:15:39.564Z,53.22
2022-10-15T21:20:42.468Z,53.35
2022-10-15T21:25:45.532Z,53.56
2022-10-15T21:30:48.375Z,53.93
2022-10-15T21:35:51.222Z,54.28
2022-10-15T21:40:54.102Z,54.46
2022-10-15T21:46:11.083Z,54.60
2022-10-15T21:51:26.967Z,54.73
2022-10-15T21:56:29.774Z,54.92
2022-10-15T22:01:35.419Z,55.12
2022-10-15T22:06:42.673Z,55.22
2022-10-15T22:11:45.522Z,55.50
2022-10-15T22:16:48.465Z,55.44
2022-10-15T22:21:51.453Z,55.75
2022-10-15T22:26:57.293Z,55.90
2022-10-15T22:32:00.160Z,55.99
2022-10-15T22:37:03.158Z,56.00
2022-10-15T22:42:06.553Z,56.10
2022-10-15T22:47:10.033Z,56.43
2022-10-15T22:52:12.969Z,56.64
2022-10-15T22:57:15.761Z,56.66
2022-10-15T23:02:21.697Z,56.94
2022-10-15T23:07:24.766Z,56.91
2022-10-15T23:12:28.043Z,57.02
2022-10-15T23:17:32.409Z,57.26
2022-10-15T23:22:35.274Z,57.06
2022-10-15T23:27:38.242Z,56.94
2022-10-15T23:32:42.226Z,57.17
2022-10-15T23:37:45.060Z,57.18
2022-10-15T23:42:48.684Z,57.19
2022-10-15T23:47:53.270Z,57.30
2022-10-15T23:52:57.596Z,57.36
2022-10-15T23:58:01.045Z,57.71
